Disclaimer

Please do not use the information listed here in-flight or in-navigation, as they are not provided to us by the airports but are provided by volunteers, so they might be outdated.

Search


Regions


Airport information page

Radio informations:
Tower (TWR) - 40.6 MHz
RADAR - 123.3 MHz
A/G RDO - 40.6 MHz
LANGEN CON - 124.425 MHz

Airport informations:
Latitude: 51° 06' 52.20" N
Longitude: 009° 17' 09.00" E
Elevation: 566 feet - 173 meters
Operating hours: Remarks
Operating agency: Military
Timezone: UTC+1(+2DT) - Last Sunday in March to last Sunday in October
Fuel: JP-8, SemiKeroscene MIL Spec T-83133, without icing inhibitor

Runway information:
12/30 - 3413 x 98 feet< - >1040 x 30 meters

Recent METARs:
ETHF 201431Z 06004KT 3000 -SN BR FEW006 BKN012 OVC016 01/M00 Q1010 YLO YLO TEMPO AMB
ETHF 201520Z 08007KT 9999 -SN FEW008 BKN013 01/M01 Q1010 GRN FCST CANCEL
ETHF 201520Z 08007KT 9999 -SN FEW008 BKN013 01/M01 Q1010 GRN FCST CANCEL

Airport on the map: